PrinceSS Rawya — 9LU2572 — position and weather

sailwx.info

Track history (hours):
 
Tides and Currents Weather Stations Pressure Air Temp Water Temp Dewpoint Dewpoint Depression Visibility Wind Speed Wind Dir Waves Ship Positions

PrinceSS Rawya

Last reported at 2017-Dec-16 13:57 UTC. Time now 2017-Dec-17 04:27 UTC.
Position N 40°50' E 029°16'.

Length 107 m; draft 3 m.

Type: Ship. MMSI: 667001769.

Date/timePositionNaut miles runAvg speedWind from/ knotsBaromVisibWave heightAir tempDewpointWater temp
2017-Dec-16 13:57N 40°50' E 029°16'0 0.0
2017-Dec-14 18:16N 40°50' E 029°16'0 0.7
2017-Dec-14 18:01N 40°51' E 029°16'2 3.9
2017-Dec-14 17:30N 40°51' E 029°14'4 8.4
2017-Dec-14 17:01N 40°47' E 029°12'4 8.3
2017-Dec-14 16:29N 40°46' E 029°06'4 9.4
2017-Dec-14 16:01N 40°46' E 029°00'12 9.5
2017-Dec-14 14:47N 40°46' E 028°45'216 7.1
2017-Dec-13 08:20N 37°60' E 025°45'3 8.9
2017-Dec-13 08:01N 37°57' E 025°46'5 8.8
2017-Dec-13 07:29N 37°53' E 025°47'4 8.5
2017-Dec-13 07:00N 37°49' E 025°48'5 8.3
2017-Dec-13 06:24N 37°44' E 025°50'5 8.2
2017-Dec-13 05:45N 37°39' E 025°52'2 8.2
2017-Dec-13 05:30N 37°37' E 025°53'4 8.0
2017-Dec-13 05:00N 37°33' E 025°54'4 8.2
2017-Dec-13 04:31N 37°29' E 025°56'4 8.0
2017-Dec-13 04:01N 37°26' E 025°59'4 7.8
2017-Dec-13 03:31N 37°24' E 026°03'4 7.8
2017-Dec-13 03:01N 37°21' E 026°06'4 7.7
2017-Dec-13 02:31N 37°18' E 026°10'4 7.7
2017-Dec-13 02:01N 37°16' E 026°14'4 7.8
2017-Dec-13 01:31N 37°13' E 026°17'4 7.9
2017-Dec-13 01:01N 37°11' E 026°21'4 7.8
2017-Dec-13 00:29N 37°08' E 026°25'4 8.0
2017-Dec-13 00:01N 37°05' E 026°28'4 7.9
2017-Dec-12 23:31N 37°03' E 026°32'4 7.7
2017-Dec-12 23:00N 37°00' E 026°36'4 7.2
2017-Dec-12 22:31N 36°57' E 026°38'4 7.6
2017-Dec-12 21:57N 36°54' E 026°41'3 7.9
2017-Dec-12 21:31N 36°51' E 026°43'4 8.0
2017-Dec-12 21:00N 36°47' E 026°46'4 8.2
2017-Dec-12 20:31N 36°44' E 026°49'4 8.4
2017-Dec-12 20:01N 36°41' E 026°52'4 8.3
2017-Dec-12 19:30N 36°37' E 026°55'8 7.9
2017-Dec-12 18:29N 36°32' E 027°03'164 8.3
2017-Dec-11 22:49N 36°06' E 030°24'3 9.1
2017-Dec-11 22:29N 36°06' E 030°27'  
Track history (hours):
 
Tides and Currents Weather Stations Pressure Air Temp Water Temp Dewpoint Dewpoint Depression Visibility Wind Speed Wind Dir Waves Ship Positions

PrinceSS Rawya

Last reported at 2017-Dec-16 13:57 UTC. Time now 2017-Dec-17 04:27 UTC.
Position N 40°50' E 029°16'.

Length 107 m; draft 3 m.

Type: Ship. MMSI: 667001769.

Date/timePositionNaut miles runAvg speedWind from/ knotsBaromVisibWave heightAir tempDewpointWater temp
2017-Dec-16 13:57N 40°50' E 029°16'0 0.0
2017-Dec-14 18:16N 40°50' E 029°16'0 0.7
2017-Dec-14 18:01N 40°51' E 029°16'2 3.9
2017-Dec-14 17:30N 40°51' E 029°14'4 8.4
2017-Dec-14 17:01N 40°47' E 029°12'4 8.3
2017-Dec-14 16:29N 40°46' E 029°06'4 9.4
2017-Dec-14 16:01N 40°46' E 029°00'12 9.5
2017-Dec-14 14:47N 40°46' E 028°45'216 7.1
2017-Dec-13 08:20N 37°60' E 025°45'3 8.9
2017-Dec-13 08:01N 37°57' E 025°46'5 8.8
2017-Dec-13 07:29N 37°53' E 025°47'4 8.5
2017-Dec-13 07:00N 37°49' E 025°48'5 8.3
2017-Dec-13 06:24N 37°44' E 025°50'5 8.2
2017-Dec-13 05:45N 37°39' E 025°52'2 8.2
2017-Dec-13 05:30N 37°37' E 025°53'4 8.0
2017-Dec-13 05:00N 37°33' E 025°54'4 8.2
2017-Dec-13 04:31N 37°29' E 025°56'4 8.0
2017-Dec-13 04:01N 37°26' E 025°59'4 7.8
2017-Dec-13 03:31N 37°24' E 026°03'4 7.8
2017-Dec-13 03:01N 37°21' E 026°06'4 7.7
2017-Dec-13 02:31N 37°18' E 026°10'4 7.7
2017-Dec-13 02:01N 37°16' E 026°14'4 7.8
2017-Dec-13 01:31N 37°13' E 026°17'4 7.9
2017-Dec-13 01:01N 37°11' E 026°21'4 7.8
2017-Dec-13 00:29N 37°08' E 026°25'4 8.0
2017-Dec-13 00:01N 37°05' E 026°28'4 7.9
2017-Dec-12 23:31N 37°03' E 026°32'4 7.7
2017-Dec-12 23:00N 37°00' E 026°36'4 7.2
2017-Dec-12 22:31N 36°57' E 026°38'4 7.6
2017-Dec-12 21:57N 36°54' E 026°41'3 7.9
2017-Dec-12 21:31N 36°51' E 026°43'4 8.0
2017-Dec-12 21:00N 36°47' E 026°46'4 8.2
2017-Dec-12 20:31N 36°44' E 026°49'4 8.4
2017-Dec-12 20:01N 36°41' E 026°52'4 8.3
2017-Dec-12 19:30N 36°37' E 026°55'8 7.9
2017-Dec-12 18:29N 36°32' E 027°03'164 8.3
2017-Dec-11 22:49N 36°06' E 030°24'3 9.1
2017-Dec-11 22:29N 36°06' E 030°27'  

Dump ship's entire track history